createdAt,value
2018-07-25T06:15:51.143Z,8.70
2018-07-25T06:18:20.471Z,9.40
2018-07-25T06:43:31.138Z,9.40
2018-07-25T06:46:00.715Z,8.30
2018-07-25T06:48:29.478Z,8.40
2018-07-25T06:50:58.865Z,7.43
2018-07-25T06:55:55.943Z,7.93
2018-07-25T06:58:24.742Z,8.13
2018-07-25T07:00:53.570Z,7.90
2018-07-25T07:03:22.995Z,6.90
2018-07-25T07:05:51.943Z,6.63
2018-07-25T07:08:21.045Z,6.80
2018-07-25T07:10:49.706Z,6.60
2018-07-25T07:13:18.742Z,5.57
2018-07-25T07:15:47.669Z,5.87
2018-07-25T07:18:16.504Z,5.30
2018-07-25T07:20:45.509Z,5.77
2018-07-25T07:23:14.143Z,5.50
2018-07-25T07:25:43.768Z,4.73
2018-07-25T07:28:12.578Z,4.60
2018-07-25T07:30:41.471Z,5.20
2018-07-25T07:33:10.704Z,4.60
2018-07-25T07:35:39.751Z,4.40
2018-07-25T07:38:09.289Z,4.33
2018-07-25T07:40:38.242Z,4.40
2018-07-25T07:43:06.949Z,3.60
2018-07-25T07:45:35.900Z,4.07
2018-07-25T07:48:04.578Z,4.40
2018-07-25T07:50:33.404Z,3.87
2018-07-25T07:53:02.115Z,3.80
2018-07-25T07:55:30.940Z,3.97
2018-07-25T07:57:59.610Z,3.73
2018-07-25T08:00:28.816Z,3.57
2018-07-25T08:02:58.053Z,3.97
2018-07-25T08:05:26.902Z,3.07
2018-07-25T08:07:55.973Z,3.40
2018-07-25T08:10:24.816Z,3.60
2018-07-25T08:12:53.941Z,3.40
2018-07-25T08:15:23.108Z,4.10
2018-07-25T08:17:52.240Z,3.77
2018-07-25T08:20:21.174Z,3.60
2018-07-25T08:22:50.395Z,3.60
2018-07-25T08:25:19.492Z,4.20
2018-07-25T08:27:48.185Z,3.80
2018-07-25T08:30:16.578Z,3.30
2018-07-25T08:32:45.203Z,3.73
2018-07-25T08:35:13.939Z,3.60
2018-07-25T08:37:42.674Z,3.67
2018-07-25T08:40:11.655Z,3.80
2018-07-25T08:42:40.548Z,4.50
2018-07-25T08:45:09.741Z,3.87
2018-07-25T08:47:38.336Z,4.00
2018-07-25T08:50:08.569Z,4.17
2018-07-25T08:52:37.532Z,4.00
2018-07-25T08:55:07.058Z,4.37
2018-07-25T08:57:35.679Z,4.47
2018-07-25T09:00:05.369Z,4.53
2018-07-25T09:02:34.112Z,4.00
2018-07-25T09:05:02.862Z,4.23
2018-07-25T09:07:31.933Z,4.40
2018-07-25T09:10:00.491Z,4.37
2018-07-25T09:12:29.496Z,3.90
2018-07-25T09:14:58.435Z,3.80
2018-07-25T09:17:27.370Z,3.57
2018-07-25T09:19:56.317Z,3.30
2018-07-25T09:22:25.093Z,4.00
2018-07-25T09:24:53.730Z,3.60
2018-07-25T09:27:22.588Z,3.70
2018-07-25T09:29:51.494Z,3.73
2018-07-25T09:32:20.410Z,3.17
2018-07-25T09:34:49.332Z,3.70
2018-07-25T09:37:18.210Z,3.43
2018-07-25T09:39:46.914Z,3.17
2018-07-25T09:42:15.614Z,4.13
2018-07-25T09:44:44.329Z,3.30
2018-07-25T09:47:13.138Z,2.73
2018-07-25T09:49:41.888Z,3.07
2018-07-25T09:52:10.794Z,3.30
2018-07-25T09:54:39.704Z,3.60
2018-07-25T09:57:08.434Z,3.43
2018-07-25T09:59:37.958Z,3.50
2018-07-25T10:02:06.993Z,3.80
2018-07-25T10:04:35.907Z,3.80
2018-07-25T10:07:07.602Z,3.70
2018-07-25T10:09:36.529Z,3.83
2018-07-25T10:12:05.724Z,3.63
2018-07-25T10:14:34.653Z,3.50
2018-07-25T10:17:03.494Z,3.90
2018-07-25T10:19:32.372Z,3.23
2018-07-25T10:22:01.495Z,3.23
2018-07-25T10:24:30.396Z,3.20
2018-07-25T10:26:59.306Z,3.40
2018-07-25T10:29:28.303Z,3.37
2018-07-25T10:31:57.475Z,3.50
2018-07-25T10:34:26.367Z,3.37
2018-07-25T10:36:55.437Z,3.50
2018-07-25T10:39:24.383Z,3.40
2018-07-25T10:41:53.308Z,3.73
2018-07-25T10:44:23.141Z,3.33
2018-07-25T10:46:52.154Z,4.20
2018-07-25T10:49:21.451Z,3.40
2018-07-25T10:51:50.505Z,3.50
2018-07-25T10:54:19.695Z,3.20
2018-07-25T10:56:48.669Z,3.30
2018-07-25T10:59:17.677Z,3.23
2018-07-25T11:01:46.707Z,3.20
2018-07-25T11:04:16.080Z,3.83
2018-07-25T11:06:45.428Z,2.93
2018-07-25T11:09:14.334Z,3.50
2018-07-25T11:11:43.199Z,3.33
2018-07-25T11:14:12.256Z,3.00
2018-07-25T11:16:41.916Z,3.20
2018-07-25T11:19:10.767Z,3.33
2018-07-25T11:21:40.037Z,3.23
2018-07-25T11:24:09.092Z,2.93
2018-07-25T11:26:38.358Z,3.30
2018-07-25T11:29:07.357Z,3.03
2018-07-25T11:31:36.541Z,3.10
2018-07-25T11:34:05.520Z,3.00
2018-07-25T11:36:34.736Z,3.30
2018-07-25T11:39:04.300Z,2.53
2018-07-25T11:41:32.850Z,3.00
2018-07-25T11:44:01.490Z,2.60
2018-07-25T11:46:30.898Z,3.00
2018-07-25T11:49:00.207Z,2.87
2018-07-25T11:51:28.680Z,3.20
2018-07-25T11:53:57.535Z,3.57
2018-07-25T11:56:26.014Z,2.70
2018-07-25T11:58:54.528Z,3.67
2018-07-25T12:01:23.965Z,2.90
2018-07-25T12:03:52.865Z,3.03
2018-07-25T12:06:22.068Z,3.37
2018-07-25T12:08:52.289Z,3.20
2018-07-25T12:11:22.963Z,3.00
2018-07-25T12:16:46.073Z,2.70
2018-07-25T12:19:16.169Z,2.83
2018-07-25T12:21:46.539Z,3.37
2018-07-25T12:24:15.153Z,4.00
2018-07-25T12:26:44.296Z,3.50
2018-07-25T12:29:13.208Z,2.70
2018-07-25T12:31:42.316Z,3.00
2018-07-25T12:37:04.806Z,2.70
2018-07-25T12:39:34.008Z,3.20
2018-07-25T12:42:02.594Z,2.60
2018-07-25T12:44:31.412Z,3.20
2018-07-25T12:47:00.002Z,2.63
2018-07-25T12:49:28.624Z,2.70
2018-07-25T12:51:57.175Z,3.27
2018-07-25T12:54:26.506Z,2.80
2018-07-25T12:56:55.168Z,2.70
2018-07-25T12:59:23.963Z,2.50
2018-07-25T13:01:52.509Z,2.73
2018-07-25T13:04:21.014Z,2.80
2018-07-25T13:06:49.854Z,2.30
2018-07-25T13:09:18.374Z,2.53
2018-07-25T13:11:46.899Z,2.70
2018-07-25T13:21:03.483Z,2.60
2018-07-25T13:23:32.044Z,2.50
2018-07-25T13:26:00.552Z,2.60
2018-07-25T13:28:29.142Z,2.57
2018-07-25T13:30:57.557Z,2.80
2018-07-25T13:33:26.318Z,2.57
2018-07-25T13:35:54.841Z,3.00
2018-07-25T13:38:23.292Z,3.00
2018-07-25T13:40:51.823Z,2.43
2018-07-25T13:43:20.350Z,2.10
2018-07-25T13:45:48.826Z,2.87
2018-07-25T13:48:17.503Z,2.90
2018-07-25T13:50:46.018Z,2.60
2018-07-25T13:53:14.530Z,3.70
2018-07-25T13:55:43.090Z,2.93
2018-07-25T13:58:11.556Z,2.60
2018-07-25T14:00:40.078Z,2.97
2018-07-25T14:03:09.382Z,2.40
2018-07-25T14:05:37.881Z,2.50
2018-07-25T14:08:06.876Z,2.37
2018-07-25T14:10:35.456Z,2.50
2018-07-25T14:13:04.181Z,2.50
2018-07-25T14:15:33.117Z,2.50
2018-07-25T14:18:01.685Z,2.30
2018-07-25T14:20:30.277Z,2.87
2018-07-25T14:22:58.870Z,2.73
2018-07-25T14:25:27.518Z,2.27
2018-07-25T14:27:55.682Z,3.00
2018-07-25T14:30:24.389Z,2.43
2018-07-25T14:32:52.776Z,2.70
2018-07-25T14:35:21.288Z,3.00
2018-07-25T14:37:49.826Z,2.70
2018-07-25T14:40:18.434Z,2.70
2018-07-25T14:42:46.907Z,2.43
2018-07-25T14:45:15.453Z,2.73
2018-07-25T14:47:44.003Z,2.30
2018-07-25T14:50:12.581Z,2.40
2018-07-25T14:52:41.098Z,2.30
2018-07-25T14:55:09.675Z,2.63
2018-07-25T14:57:38.168Z,2.43
2018-07-25T15:00:07.207Z,2.27
2018-07-25T15:02:36.160Z,2.67
2018-07-25T15:05:05.014Z,2.80
2018-07-25T15:07:33.544Z,2.90
2018-07-25T15:10:02.120Z,2.27
2018-07-25T15:14:00.112Z,2.10
2018-07-25T15:16:28.645Z,2.60
2018-07-25T15:18:57.214Z,1.70
2018-07-25T15:21:25.765Z,2.40
2018-07-25T15:23:58.159Z,1.87
2018-07-25T15:26:27.083Z,2.67
2018-07-25T15:35:42.838Z,2.43
2018-07-25T15:38:11.421Z,1.60
2018-07-25T15:40:40.004Z,2.33
2018-07-25T15:43:08.653Z,2.27
2018-07-25T15:45:37.148Z,1.97
2018-07-25T15:48:05.717Z,2.00
2018-07-25T15:50:34.273Z,2.20
2018-07-25T15:53:02.850Z,2.37
2018-07-25T15:55:31.427Z,2.00
2018-07-25T15:57:59.947Z,2.07
2018-07-25T16:00:28.482Z,1.70
2018-07-25T16:02:56.987Z,2.17
2018-07-25T16:05:25.499Z,1.63
2018-07-25T16:07:53.689Z,2.57
2018-07-25T16:10:22.219Z,2.23
2018-07-25T16:12:50.699Z,2.30
2018-07-25T16:15:19.285Z,1.97
2018-07-25T16:17:47.760Z,2.40
2018-07-25T16:20:16.274Z,2.53
2018-07-25T16:22:44.945Z,2.10
2018-07-25T16:25:13.494Z,2.30
2018-07-25T16:27:42.027Z,2.20
2018-07-25T16:30:10.707Z,2.50
2018-07-25T16:32:39.292Z,2.27
2018-07-25T16:35:07.803Z,1.77
2018-07-25T16:37:36.375Z,2.67
2018-07-25T16:40:05.283Z,2.67
2018-07-25T16:42:33.629Z,2.80
2018-07-25T16:45:02.167Z,2.10
2018-07-25T16:47:30.651Z,2.40
2018-07-25T16:49:59.243Z,2.10
2018-07-25T16:52:27.808Z,2.27
2018-07-25T16:54:56.339Z,1.97
2018-07-25T16:57:24.841Z,2.53
2018-07-25T16:59:53.373Z,2.03
2018-07-25T17:02:22.085Z,2.70
2018-07-25T17:04:51.313Z,2.40
2018-07-25T17:07:19.941Z,2.47
2018-07-25T17:09:48.627Z,2.20
2018-07-25T17:12:17.446Z,2.33
2018-07-25T17:14:45.987Z,2.50
2018-07-25T17:17:14.464Z,2.80
2018-07-25T17:19:43.550Z,2.70
2018-07-25T17:22:12.475Z,2.20
2018-07-25T17:24:41.001Z,2.70
2018-07-25T17:27:10.675Z,2.03
2018-07-25T17:29:39.322Z,2.27
2018-07-25T17:32:07.871Z,2.20
2018-07-25T17:34:36.829Z,3.70
2018-07-25T17:37:05.683Z,2.70
2018-07-25T17:39:34.589Z,2.67
2018-07-25T17:42:03.235Z,2.30
2018-07-25T17:44:32.228Z,2.50
2018-07-25T17:47:00.939Z,2.30
2018-07-25T17:49:30.019Z,2.13
2018-07-25T17:51:59.157Z,2.73
2018-07-25T17:54:28.245Z,2.93
2018-07-25T17:56:57.763Z,3.20
2018-07-25T17:59:26.847Z,2.97
2018-07-25T18:01:55.892Z,2.90
2018-07-25T18:04:25.191Z,3.17
2018-07-25T18:06:54.130Z,3.00
2018-07-25T18:09:23.364Z,2.80
2018-07-25T18:11:52.475Z,3.20
2018-07-25T18:14:21.846Z,3.33
2018-07-25T18:16:50.979Z,3.40
2018-07-25T18:19:19.735Z,3.13
2018-07-25T18:21:48.877Z,2.90
2018-07-25T18:24:17.687Z,3.47
2018-07-25T18:26:46.495Z,3.60
2018-07-25T18:29:15.467Z,2.90
2018-07-25T18:31:44.438Z,3.43
2018-07-25T18:34:13.754Z,3.40
2018-07-25T18:36:43.130Z,3.20
2018-07-25T18:46:00.556Z,3.27
2018-07-25T18:48:29.563Z,3.27
2018-07-25T18:50:58.607Z,3.00
2018-07-25T18:53:27.809Z,3.93
2018-07-25T18:55:56.644Z,3.60
2018-07-25T18:58:25.799Z,3.30
2018-07-25T19:00:54.784Z,3.70
2018-07-25T19:03:25.958Z,3.60
2018-07-25T19:08:23.063Z,3.70
2018-07-25T19:10:51.843Z,3.50
2018-07-25T19:13:26.631Z,3.60
2018-07-25T19:15:55.259Z,3.30
2018-07-25T19:18:24.916Z,4.10
2018-07-25T19:20:54.344Z,3.70
2018-07-25T19:23:23.684Z,3.43
2018-07-25T19:25:53.222Z,3.83
2018-07-25T19:28:23.129Z,3.70
2018-07-25T19:30:58.557Z,3.83
2018-07-25T19:33:27.174Z,3.95
2018-07-25T19:35:55.743Z,3.80
2018-07-25T19:38:24.316Z,4.00
2018-07-25T19:40:53.361Z,3.80
2018-07-25T19:43:23.541Z,4.13
2018-07-25T19:45:54.579Z,3.77
2018-07-25T19:48:24.298Z,3.50
2018-07-25T19:50:53.942Z,4.57
2018-07-25T19:53:23.235Z,4.23
2018-07-25T19:55:52.797Z,4.23
2018-07-25T19:58:22.255Z,4.27
2018-07-25T20:00:52.997Z,4.03
2018-07-25T20:03:22.812Z,3.70
2018-07-25T20:05:52.846Z,3.70
2018-07-25T20:08:22.382Z,4.75
2018-07-25T20:10:52.141Z,4.10
2018-07-25T20:13:21.997Z,4.50
2018-07-25T20:15:56.003Z,4.40
2018-07-25T20:20:58.028Z,4.40
2018-07-25T20:23:27.806Z,4.87
2018-07-25T20:28:49.490Z,4.80
2018-07-25T20:31:18.083Z,4.20
2018-07-25T20:33:46.809Z,4.27
2018-07-25T20:36:15.756Z,5.05
2018-07-25T20:38:44.816Z,4.20
2018-07-25T20:41:14.140Z,4.83
2018-07-25T20:43:43.527Z,5.27
2018-07-25T20:46:12.810Z,4.80
2018-07-25T20:48:42.610Z,4.10
2018-07-25T20:51:12.704Z,4.30
2018-07-25T21:01:06.945Z,4.55
2018-07-25T21:13:34.602Z,4.40
2018-07-25T21:16:03.609Z,4.47
2018-07-25T21:21:01.874Z,4.10
2018-07-25T21:38:20.994Z,4.30
2018-07-25T21:40:49.674Z,4.70
